x

Buoy F01 - West Penobscot Bay (44033) Wave Buoy

1:04pm - Sun 29th Mar 2015 All times are EDT. -4 hours from GMT.

  • Sig Wave height 1.6ft
  • Peak Period 11s
  • Wind
    7mph, 9mph gusts
  • Sea Temp 35°f
  • 空気 Temp 31°f
  • Sea Pressure 1019.2mb
  • Buoy F01 - West Penobscot Bay
  • Buoy F01 - West Penobscot Bay

More Historic Weather Station data

Upgrade to MSW Pro to gain access to the past 30 days of data for over 8000 Wavebouys and Weather Stations around the globe.

Join Pro

Comparision Forecast

View Surf forecast
   
Sun 03/29 1:04pm 1.6ft 11s 7 9 mph 1019.2mb 35f 31f
12:04pm 1.6ft 11s 2 4 mph 1019.7mb 34f 30f
11:04am 2ft 11s 4 7 mph 1020.2mb 34f 29f
10:04am 2.5ft 11s 7 9 mph 1020.2mb 34f 28f
9:04am  -   -  13 16 mph 1019.6mb - 27f
8:04am  -   -  13 18 mph 1018.9mb 34f 26f
7:04am 1.6ft 3s 16 18 mph 1018.1mb 34f 26f
6:04am  -   -  16 20 mph 1016.9mb 34f 27f
5:04am 1.6ft 3s 20 22 mph 1016.1mb 34f 27f
4:04am 1.3ft 3s 16 18 mph 1015.3mb 34f 28f
2:04am 3ft 11s 20 22 mph 1014.7mb 34f 31f
1:04am 2ft 3s 20 25 mph 1014.1mb 34f 31f
12:04am  -   -  20 25 mph 1013.5mb 34f 32f
Sat 03/28 11:04pm 3.5ft 11s 22 25 mph 1012.5mb 34f 34f
10:04pm 2ft 11s 7 11 mph 1011.4mb 34f 34f
9:04pm 2.5ft 11s 4 7 mph 1010.2mb 34f 35f
8:04pm 2.5ft 11s 7 9 mph 1008.8mb 34f 35f
7:04pm 2ft 11s 9 11 mph 1007.8mb 34f 35f
6:04pm 2ft 6s 11
mph
1007mb 34f 35f
5:04pm 2ft 4s 11 13 mph 1006.1mb 34f 35f
4:04pm 2ft 4s 16 18 mph 1007mb 34f 32f
3:04pm 2.5ft 4s 22 27 mph 1007.3mb 34f 31f
2:04pm 3ft 4s 20 25 mph 1007.4mb 34f 32f
1:04pm 3.5ft 4s 22 27 mph 1007.1mb 34f 33f
12:04pm 4.5ft 11s 25 29 mph 1006.9mb 34f 32f
11:04am 3.5ft 4s 22 25 mph 1008.1mb 34f 31f
10:04am 4.5ft 11s 22 27 mph 1008mb 34f 31f
9:04am 5ft 11s 22 27 mph 1007.6mb 34f 31f
8:04am 3.5ft 4s 22 27 mph 1007.8mb 34f 32f
7:04am  -   -  20 25 mph 1007mb 34f 33f
6:04am 4.5ft 11s 20 27 mph 1006.8mb 34f 33f
5:04am 2ft 3s 18 22 mph 1007mb 34f 34f
4:04am 1.3ft 3s 18 22 mph 1006.6mb 34f 35f
3:04am  -   -  11 16 mph 1006.9mb 34f 36f
2:04am 2.5ft 11s 11 13 mph 1006.9mb 34f 36f
1:04am 2.5ft 11s 7
mph
1006.6mb 34f 36f
12:04am 3ft 11s 9 11 mph 1006mb 34f 37f
Fri 03/27 11:04pm 2.5ft 11s 9 11 mph 1006.7mb 34f 37f
10:04pm 3ft 11s 4 7 mph 1006.3mb 34f 36f
9:04pm 2.5ft 11s 4
mph
1006.4mb 34f 35f
8:04pm 2.5ft 11s 4
mph
1005.5mb 34f 35f
7:04pm 2.5ft 11s 4
mph
1004.5mb 34f 36f
6:04pm 2.5ft 11s 4
mph
1004.2mb 34f 37f
5:04pm 2.5ft 8s 4
mph
1004.1mb 35f 37f
4:04pm 2.5ft 11s 2
mph
1003.4mb 35f 37f
3:04pm 3ft 8s 2 4 mph 1003.2mb 35f 38f
2:04pm 3.5ft 8s  -  2 mph 1003.6mb 34f 38f
1:04pm 3ft 8s  -  2 mph 1004.4mb 34f 38f
12:04pm 3ft 8s 2
mph
1005mb 34f 36f
11:04am 3ft 8s 2 4 mph 1004.7mb 34f 36f
10:04am 2.5ft 8s 4
mph
1005.3mb 34f 35f
9:04am 2.5ft 8s 4
mph
1005.5mb 34f 36f
8:04am 2.5ft 8s 4 7 mph 1005.2mb 34f 36f
7:04am 3ft 8s 7
mph
1003.9mb 34f 36f
6:04am 3.5ft 8s 7 9 mph 1003.3mb 34f 36f
5:04am 3.5ft 8s 9
mph
1002.5mb 34f 35f
4:04am 3ft 8s 7 9 mph 1002.2mb 34f 36f
3:04am 2.5ft 6s 9 11 mph 1003mb 34f 36f
2:04am 2ft 6s 7 9 mph 1002.8mb 34f 36f
1:04am 2.5ft 6s 4 7 mph 1003.1mb 34f 36f
12:04am 2ft 6s 4 7 mph 1003.8mb 34f 36f
Thu 03/26 11:04pm 2.5ft 6s 4
mph
1003.6mb 34f 35f
10:04pm 2.5ft 6s 4 7 mph 1003.9mb 34f 35f
9:04pm 2.5ft 6s 7
mph
1004.2mb 34f 35f
8:04pm 2ft 6s 2 4 mph 1004.3mb 34f 36f
7:04pm 2ft 6s 2 4 mph 1004.1mb 34f 36f
6:04pm 2.5ft 6s  -  mph 1003.6mb 34f 38f
5:04pm 2.5ft 6s 4 7 mph 1004.8mb 34f 36f
4:04pm 2ft 6s 2 9 mph 1005.2mb 34f 37f
3:04pm 2.5ft 6s 9 11 mph 1006.6mb 34f 38f
2:04pm 2.5ft 6s 11 13 mph 1007.3mb 34f 37f
1:04pm 3ft 6s 11 13 mph 1008.1mb 34f 38f
12:04pm 2.5ft 6s 13
mph
1009.5mb 34f 38f
11:04am 2.5ft 6s 7
mph
1011mb 34f 37f
10:04am 3ft 6s 7 9 mph 1011.5mb 34f 36f
9:04am 3ft 6s 9
mph
1011.9mb 34f 37f
8:04am 3.5ft 6s 9 11 mph 1012.2mb 34f 37f
7:04am 3.5ft 6s 11 16 mph 1012.3mb 34f 37f
6:04am 4ft 6s 18 20 mph 1012.5mb 34f 37f
5:04am 4ft 6s 18 20 mph 1013.1mb 34f 37f
4:04am 4ft 6s 18 22 mph 1014.4mb 34f 37f
3:04am 4ft 6s 16 20 mph 1015.5mb 34f 37f
2:04am 4.5ft 6s 20 22 mph 1017.2mb 34f 36f
1:04am 4ft 5s 18 20 mph 1018.1mb 34f 36f
12:04am 4ft 5s 20 25 mph 1018.9mb 34f 35f
Wed 03/25 11:04pm 3.5ft 5s 25 29 mph 1020.2mb 34f 35f
10:04pm 3ft 5s 18 22 mph 1021.1mb 34f 37f
9:04pm 2ft 4s 16 18 mph 1021.9mb 34f 36f
8:04pm 1ft 4s 9 11 mph 1022.7mb 34f 36f
7:04pm 1ft 4s 11 13 mph 1023.4mb 34f 35f